Terminal Aerodrome Forecast
Issued by NWS Binghamton, NY

Home | Current Version | Previous Version | Text Only | Print | Product List | Glossary On
Versions: 1 2 3 4 5 6 7 8 9 10 11 12 13 14 15 16 17 18
696
FTUS41 KBGM 171936 AAC
TAFBGM
TAF AMD
KBGM 171936Z 1720/1818 13012KT 3SM -RA BR OVC008 WS020/24040KT
      TEMPO 1720/1724 1 1/2SM -RA BR OVC003
     FM180100 17009KT 2SM -RA BR OVC005
     FM181000 23004KT 1 1/2SM -RA BR OVC003
     FM181400 25004KT 3SM -RA BR OVC008
     FM181700 26004KT P6SM -DZ OVC010=

USA.gov is the U.S. government's official web portal to all federal, state and local government web resources and services.